Time;durP1;ratioP1;P1;durP2;ratioP2;P2;SDS_P1;SDS_P2;PMS_P1;PMS_P2;Temp;Humidity;BMP_temperature;BMP_pressure;BME280_temperature;BME280_humidity;BME280_pressure;Samples;Min_cycle;Max_cycle;Signal;HPM_P1;HPM_P2
2021/07/22 00:01:39;;;;;;;14.90;10.20;;;;;;;18.34;89.70;101435.94;3564178;40;20056;-46
2021/07/22 00:04:06;;;;;;;15.05;10.90;;;;;;;18.14;91.72;101435.84;3557040;40;20053;-47
2021/07/22 00:06:33;;;;;;;13.05;10.48;;;;;;;18.03;92.33;101433.19;3564319;40;20093;-46
2021/07/22 00:09:01;;;;;;;13.65;10.40;;;;;;;17.96;93.27;101439.16;3564151;40;20489;-47
2021/07/22 00:11:27;;;;;;;14.27;9.93;;;;;;;17.88;93.90;101440.81;3564498;40;20426;-46
2021/07/22 00:13:54;;;;;;;13.60;10.10;;;;;;;17.96;94.17;101436.56;3569910;40;20092;-46
2021/07/22 00:16:22;;;;;;;12.50;10.27;;;;;;;17.92;94.44;101436.53;3573926;40;20045;-46
2021/07/22 00:18:51;;;;;;;14.63;10.52;;;;;;;18.14;93.34;101440.16;3574216;40;20394;-53
2021/07/22 00:21:18;;;;;;;14.18;10.50;;;;;;;18.30;91.53;101440.28;3573955;40;20084;-46
2021/07/22 00:23:45;;;;;;;14.65;10.43;;;;;;;18.20;92.65;101440.19;3574265;40;20055;-46
2021/07/22 00:26:12;;;;;;;16.55;10.35;;;;;;;17.94;93.99;101434.84;3574019;40;20045;-46
2021/07/22 00:28:39;;;;;;;13.48;10.07;;;;;;;17.95;94.35;101433.97;3574209;40;20048;-49
2021/07/22 00:31:06;;;;;;;13.75;10.48;;;;;;;18.00;93.62;101432.28;3566220;40;20073;-46
2021/07/22 00:33:33;;;;;;;14.85;9.73;;;;;;;17.93;94.14;101427.91;3574168;40;20048;-46
2021/07/22 00:36:08;;;;;;;12.82;9.88;;;;;;;17.96;94.04;101425.34;3574146;40;20688;-46
2021/07/22 00:38:35;;;;;;;14.65;10.48;;;;;;;18.04;94.62;101428.84;3574178;40;20144;-46
2021/07/22 00:41:02;;;;;;;17.15;10.52;;;;;;;17.95;94.14;101428.78;3574002;40;20345;-49
2021/07/22 00:43:29;;;;;;;13.82;10.95;;;;;;;17.97;94.48;101425.34;3573983;40;20112;-47
2021/07/22 00:45:56;;;;;;;14.07;10.75;;;;;;;18.23;93.58;101425.53;3574079;40;20084;-46
2021/07/22 00:48:23;;;;;;;21.13;10.90;;;;;;;18.33;93.03;101429.03;3573643;40;20157;-46
2021/07/22 00:50:50;;;;;;;15.38;10.55;;;;;;;17.93;94.62;101426.16;3573905;40;20120;-46
2021/07/22 00:53:17;;;;;;;15.18;10.90;;;;;;;17.88;95.71;101425.28;3574115;40;20332;-49
2021/07/22 00:55:44;;;;;;;13.75;10.70;;;;;;;18.22;93.40;101426.38;3573951;40;20048;-46
2021/07/22 00:58:11;;;;;;;15.80;11.32;;;;;;;17.89;94.99;101420.97;3573866;40;20053;-47
2021/07/22 01:00:38;;;;;;;15.48;11.18;;;;;;;17.80;95.39;101421.78;3573526;40;20531;-46
2021/07/22 01:03:05;;;;;;;17.00;11.00;;;;;;;17.75;96.12;101421.75;3566155;40;20061;-49
2021/07/22 01:05:32;;;;;;;15.88;11.18;;;;;;;17.90;95.85;101426.16;3573636;40;20080;-48
2021/07/22 01:07:59;;;;;;;17.95;11.57;;;;;;;17.84;96.17;101423.53;3573876;40;20610;-47
2021/07/22 01:10:26;;;;;;;14.93;10.73;;;;;;;17.87;95.56;101426.13;3573785;40;20080;-46
2021/07/22 01:12:53;;;;;;;15.18;11.05;;;;;;;17.73;97.37;101425.13;3573657;40;20053;-50
2021/07/22 01:15:21;;;;;;;18.83;11.40;;;;;;;17.63;97.43;101418.16;3573483;40;20069;-47
2021/07/22 01:17:49;;;;;;;16.10;11.07;;;;;;;17.62;97.44;101419.00;3573287;40;20085;-48
2021/07/22 01:20:17;;;;;;;14.70;11.38;;;;;;;17.78;96.39;101416.56;3573875;40;20049;-46
2021/07/22 01:22:46;;;;;;;15.75;11.13;;;;;;;17.85;95.76;101425.28;3573451;40;20052;-46
2021/07/22 01:25:14;;;;;;;17.30;11.48;;;;;;;18.11;95.28;101419.38;3573640;40;20056;-47
2021/07/22 01:27:42;;;;;;;17.00;10.65;;;;;;;17.93;95.61;101415.81;3573255;40;20661;-46
2021/07/22 01:30:11;;;;;;;17.15;11.30;;;;;;;17.72;97.17;101413.91;3573582;40;20478;-46
2021/07/22 01:32:38;;;;;;;13.88;10.75;;;;;;;17.68;97.31;101419.91;3573740;40;20131;-49
2021/07/22 01:35:07;;;;;;;14.88;10.85;;;;;;;17.87;97.00;101414.91;3573333;40;20073;-48
2021/07/22 01:37:34;;;;;;;15.32;11.30;;;;;;;17.95;96.00;101419.28;3573785;40;20291;-48
2021/07/22 01:40:02;;;;;;;14.93;10.60;;;;;;;18.12;94.87;101410.75;3573283;40;20041;-48
2021/07/22 01:42:31;;;;;;;14.43;11.20;;;;;;;17.86;96.48;101414.03;3574051;40;20120;-50
2021/07/22 01:44:57;;;;;;;14.82;11.07;;;;;;;17.71;97.71;101407.00;3573715;40;20063;-51
2021/07/22 01:47:25;;;;;;;14.80;11.32;;;;;;;17.61;98.38;101410.38;3573318;40;20089;-50
2021/07/22 01:49:52;;;;;;;17.23;11.15;;;;;;;17.64;99.04;101414.69;3573310;40;20146;-51
2021/07/22 01:52:19;;;;;;;14.38;11.65;;;;;;;17.66;98.76;101413.00;3573673;40;20061;-50
2021/07/22 01:54:46;;;;;;;14.10;11.13;;;;;;;17.67;98.64;101412.13;3573518;40;20088;-47
2021/07/22 01:57:13;;;;;;;14.77;10.77;;;;;;;17.88;97.69;101408.84;3573799;40;20105;-48
2021/07/22 01:59:41;;;;;;;15.05;10.90;;;;;;;17.82;97.86;101409.69;3573390;40;20099;-50
2021/07/22 02:02:09;;;;;;;17.45;11.40;;;;;;;17.67;98.61;101399.19;3573648;40;20060;-50
2021/07/22 02:04:39;;;;;;;16.95;11.20;;;;;;;17.74;98.80;101408.75;3573850;40;20055;-47
2021/07/22 02:07:06;;;;;;;15.10;10.95;;;;;;;17.68;98.75;101404.38;3565802;40;20084;-49
2021/07/22 02:09:33;;;;;;;17.33;11.68;;;;;;;17.63;99.15;101400.88;3573705;40;20357;-48
2021/07/22 02:12:00;;;;;;;13.48;11.43;;;;;;;17.92;97.93;101405.44;3573953;40;20085;-49
2021/07/22 02:14:27;;;;;;;14.23;10.98;;;;;;;17.92;98.09;101408.88;3573472;40;20135;-49
2021/07/22 02:16:55;;;;;;;16.50;11.07;;;;;;;17.76;98.58;101402.75;3573552;40;20127;-49
2021/07/22 02:19:22;;;;;;;16.60;11.77;;;;;;;18.28;96.23;101402.22;3574557;40;20288;-51
2021/07/22 02:21:49;;;;;;;13.65;9.88;;;;;;;18.21;95.45;101400.44;3574706;40;20043;-49
2021/07/22 02:24:16;;;;;;;16.30;11.40;;;;;;;17.72;98.84;101408.72;3574645;40;20088;-51
2021/07/22 02:26:43;;;;;;;14.80;11.10;;;;;;;17.60;99.68;101408.59;3574609;40;20081;-48
2021/07/22 02:29:10;;;;;;;13.80;10.52;;;;;;;17.67;100.00;101406.97;3574923;40;20441;-49
2021/07/22 02:31:37;;;;;;;16.35;10.60;;;;;;;17.71;100.00;101413.91;3574733;40;20100;-47
2021/07/22 02:34:05;;;;;;;16.13;11.52;;;;;;;17.51;100.00;101416.28;3566806;40;20055;-49
2021/07/22 02:36:32;;;;;;;14.45;10.90;;;;;;;17.85;100.00;101409.72;3574808;40;20049;-51
2021/07/22 02:39:00;;;;;;;16.48;11.25;;;;;;;17.49;100.00;101416.28;3575042;40;20105;-48
2021/07/22 02:41:32;;;;;;;15.68;11.00;;;;;;;17.54;100.00;101414.63;3574633;40;20092;-51
2021/07/22 02:43:59;;;;;;;15.40;11.05;;;;;;;17.52;100.00;101418.06;3574805;40;20084;-48
2021/07/22 02:46:26;;;;;;;15.18;11.27;;;;;;;17.54;100.00;101417.19;3575047;40;20343;-48
2021/07/22 02:48:56;;;;;;;14.52;10.43;;;;;;;17.51;100.00;101409.41;3574338;40;20060;-50
2021/07/22 02:51:23;;;;;;;14.77;11.30;;;;;;;17.46;100.00;101412.81;3574737;40;20061;-49
2021/07/22 02:53:50;;;;;;;15.50;11.35;;;;;;;17.36;100.00;101419.63;3574620;40;20455;-49
2021/07/22 02:56:17;;;;;;;14.40;11.77;;;;;;;17.29;100.00;101413.53;3574800;40;20049;-50
2021/07/22 02:58:44;;;;;;;15.65;11.43;;;;;;;17.34;100.00;101411.00;3574461;40;20426;-50
2021/07/22 03:01:11;;;;;;;17.50;11.98;;;;;;;17.27;100.00;101415.22;3574265;40;20078;-49
2021/07/22 03:03:39;;;;;;;16.58;11.93;;;;;;;17.43;100.00;101415.38;3574778;40;20060;-51
2021/07/22 03:06:06;;;;;;;18.05;12.02;;;;;;;17.26;100.00;101410.03;3566672;40;20057;-51
2021/07/22 03:08:33;;;;;;;18.90;12.05;;;;;;;17.23;100.00;101412.59;3574248;40;20065;-47
2021/07/22 03:11:00;;;;;;;14.75;11.48;;;;;;;17.25;100.00;101411.75;3574408;40;20068;-47
2021/07/22 03:13:27;;;;;;;15.45;12.20;;;;;;;17.16;100.00;101421.16;3570212;40;20120;-53
2021/07/22 03:15:54;;;;;;;16.70;12.23;;;;;;;17.20;100.00;101418.63;3570786;40;20419;-51
2021/07/22 03:18:21;;;;;;;17.13;11.90;;;;;;;17.15;100.00;101411.66;3568405;40;20485;-49
2021/07/22 03:20:48;;;;;;;16.90;12.75;;;;;;;17.37;100.00;101412.72;3574365;40;20253;-49
2021/07/22 03:23:16;;;;;;;14.57;11.25;;;;;;;17.29;100.00;101415.25;3570032;40;20053;-49
2021/07/22 03:25:44;;;;;;;17.75;11.55;;;;;;;17.21;100.00;101407.41;3574314;40;20060;-49
2021/07/22 03:28:11;;;;;;;19.17;12.80;;;;;;;17.40;100.00;101407.59;3571334;40;20108;-49
2021/07/22 03:30:40;;;;;;;19.33;11.82;;;;;;;17.26;100.00;101408.31;3567552;40;20443;-50
2021/07/22 03:33:09;;;;;;;16.80;12.13;;;;;;;17.29;100.00;101416.13;3560217;40;20085;-48
2021/07/22 03:35:37;;;;;;;19.33;12.77;;;;;;;17.31;100.00;101408.34;3560303;40;20085;-47
2021/07/22 03:38:04;;;;;;;16.63;11.77;;;;;;;17.41;100.00;101414.50;3572953;40;20072;-46
2021/07/22 03:40:31;;;;;;;18.30;12.30;;;;;;;17.32;100.00;101412.69;3573512;40;20426;-48
2021/07/22 03:42:59;;;;;;;21.27;12.15;;;;;;;17.27;100.00;101414.34;3573957;40;20525;-49
2021/07/22 03:45:26;;;;;;;17.17;12.02;;;;;;;17.22;100.00;101419.50;3574450;40;20096;-45
2021/07/22 03:47:53;;;;;;;19.27;12.45;;;;;;;17.22;100.00;101405.69;3573782;40;20093;-50
2021/07/22 03:50:21;;;;;;;16.30;11.75;;;;;;;17.49;100.00;101415.44;3572969;40;20088;-45
2021/07/22 03:52:59;;;;;;;19.33;12.73;;;;;;;17.45;100.00;101406.75;3570384;40;20116;-45
2021/07/22 03:55:26;;;;;;;18.08;12.27;;;;;;;17.37;100.00;101410.13;3574298;40;20183;-45
2021/07/22 03:57:58;;;;;;;18.05;13.25;;;;;;;17.47;100.00;101411.94;3574051;40;20057;-47
2021/07/22 04:00:31;;;;;;;16.45;11.95;;;;;;;17.48;100.00;101411.13;3574483;40;20053;-46
2021/07/22 04:03:01;;;;;;;18.15;12.30;;;;;;;17.48;100.00;101405.94;3574652;40;20435;-46
2021/07/22 04:05:28;;;;;;;16.38;12.75;;;;;;;17.45;100.00;101401.59;3574081;40;20381;-46
2021/07/22 04:07:59;;;;;;;16.02;12.45;;;;;;;17.46;100.00;101415.41;3573787;40;20060;-46
2021/07/22 04:10:29;;;;;;;15.75;11.68;;;;;;;17.80;100.00;101408.81;3573675;40;20055;-49
2021/07/22 04:12:58;;;;;;;17.85;12.95;;;;;;;17.44;100.00;101414.53;3573807;40;20099;-46
2021/07/22 04:15:26;;;;;;;15.80;12.55;;;;;;;17.35;100.00;101407.53;3573933;40;20052;-46
2021/07/22 04:17:54;;;;;;;17.27;12.02;;;;;;;17.60;100.00;101413.78;3574022;40;20418;-48
2021/07/22 04:20:23;;;;;;;17.88;12.35;;;;;;;17.58;100.00;101418.09;3573700;40;20133;-47
2021/07/22 04:22:52;;;;;;;15.32;11.63;;;;;;;17.88;100.00;101419.22;3574115;40;20053;-44
2021/07/22 04:25:20;;;;;;;21.05;13.00;;;;;;;17.68;100.00;101417.31;3570229;40;20080;-46
2021/07/22 04:27:47;;;;;;;16.38;11.40;;;;;;;17.78;100.00;101413.97;3573777;40;20082;-48
2021/07/22 04:30:14;;;;;;;18.08;11.77;;;;;;;17.84;100.00;101415.75;3664883;23;21110;-42
2021/07/22 04:32:41;;;;;;;20.30;13.57;;;;;;;17.70;100.00;101418.22;3543989;40;20262;-42
2021/07/22 04:35:09;;;;;;;18.48;12.40;;;;;;;17.73;100.00;101418.25;3544146;40;20054;-42
2021/07/22 04:37:36;;;;;;;20.50;13.77;;;;;;;18.00;100.00;101415.00;3540545;40;20083;-42
2021/07/22 04:40:06;;;;;;;20.50;12.45;;;;;;;17.89;100.00;101419.25;3543940;40;20034;-42
2021/07/22 04:42:34;;;;;;;17.42;12.65;;;;;;;18.07;100.00;101421.06;3544216;40;20054;-44
2021/07/22 04:45:01;;;;;;;24.58;14.30;;;;;;;18.25;100.00;101417.75;3544337;40;20082;-42
2021/07/22 04:47:29;;;;;;;21.88;13.13;;;;;;;18.24;100.00;101410.81;3544092;40;20055;-46
2021/07/22 04:49:56;;;;;;;17.98;12.50;;;;;;;18.18;100.00;101416.84;3543783;40;20034;-42
2021/07/22 04:52:23;;;;;;;19.27;12.57;;;;;;;18.06;100.00;101417.63;3543999;40;20058;-42
2021/07/22 04:54:50;;;;;;;18.88;12.02;;;;;;;18.25;100.00;101417.75;3543753;40;20047;-45
2021/07/22 04:57:17;;;;;;;19.52;13.73;;;;;;;18.34;100.00;101420.38;3543783;40;20085;-43
2021/07/22 04:59:45;;;;;;;20.40;13.20;;;;;;;18.29;100.00;101420.34;3543890;40;20054;-44
2021/07/22 05:02:12;;;;;;;19.38;13.38;;;;;;;18.25;100.00;101418.59;3544010;40;20499;-42
2021/07/22 05:04:39;;;;;;;21.92;13.80;;;;;;;18.45;100.00;101421.31;3543668;40;20058;-42
2021/07/22 05:07:07;;;;;;;16.35;12.73;;;;;;;18.35;100.00;101424.72;3539975;40;20061;-42
2021/07/22 05:09:34;;;;;;;17.58;13.20;;;;;;;18.55;100.00;101419.63;3543955;40;20090;-46
2021/07/22 05:12:01;;;;;;;25.27;15.00;;;;;;;18.61;100.00;101427.44;3544171;40;20058;-43
2021/07/22 05:14:28;;;;;;;21.80;13.80;;;;;;;19.08;98.75;101419.84;3544362;40;20506;-43
2021/07/22 05:16:55;;;;;;;17.17;12.85;;;;;;;19.02;97.27;101427.63;3542998;40;20058;-42
2021/07/22 05:19:22;;;;;;;17.73;13.18;;;;;;;19.12;98.35;101422.44;3543697;40;20078;-43
2021/07/22 05:21:49;;;;;;;17.67;12.43;;;;;;;19.45;95.10;101426.81;3543763;40;20054;-42
2021/07/22 05:24:17;;;;;;;18.33;12.20;;;;;;;19.78;93.30;101432.09;3543256;40;20062;-43
2021/07/22 05:26:44;;;;;;;19.45;12.63;;;;;;;19.97;92.59;101427.75;3544051;40;20061;-43
2021/07/22 05:29:11;;;;;;;20.25;12.57;;;;;;;19.87;92.78;101426.00;3544169;40;20119;-43
2021/07/22 05:31:42;;;;;;;21.17;13.73;;;;;;;19.81;93.20;101429.47;3543797;40;20125;-44
2021/07/22 05:34:10;;;;;;;20.33;12.82;;;;;;;19.67;92.54;101420.81;3543772;40;20054;-42
2021/07/22 05:36:39;;;;;;;26.63;14.32;;;;;;;19.92;92.98;101431.19;3544340;40;20380;-45
2021/07/22 05:39:06;;;;;;;15.48;11.73;;;;;;;19.93;91.02;101419.94;3539820;40;20071;-44
2021/07/22 05:41:37;;;;;;;19.85;12.88;;;;;;;20.04;90.47;101419.03;3543823;40;20051;-43
2021/07/22 05:44:04;;;;;;;15.93;12.20;;;;;;;19.80;93.16;101427.75;3543960;40;20058;-43
2021/07/22 05:46:32;;;;;;;19.27;12.50;;;;;;;19.86;92.91;101424.25;3544004;40;20054;-42
2021/07/22 05:49:00;;;;;;;17.52;12.68;;;;;;;19.83;93.28;101421.69;3543357;40;20050;-44
2021/07/22 05:51:30;;;;;;;19.67;13.90;;;;;;;19.74;94.65;101427.75;3543562;40;20819;-43
2021/07/22 05:53:58;;;;;;;15.43;12.00;;;;;;;20.07;92.46;101426.00;3548551;40;20061;-42
2021/07/22 05:56:26;;;;;;;18.58;12.30;;;;;;;20.17;92.89;101430.28;3549072;40;20081;-43
2021/07/22 05:58:54;;;;;;;17.55;12.10;;;;;;;20.41;89.13;101431.09;3544430;40;20074;-43
2021/07/22 06:01:21;;;;;;;17.63;12.35;;;;;;;20.77;88.00;101432.75;3544710;40;20082;-42
2021/07/22 06:03:49;;;;;;;17.42;12.82;;;;;;;20.55;86.56;101425.00;3544577;40;20772;-43
2021/07/22 06:06:16;;;;;;;19.65;12.25;;;;;;;20.91;85.68;101435.28;3544478;40;20125;-42
2021/07/22 06:08:47;;;;;;;20.23;13.05;;;;;;;20.60;87.22;101431.06;3544694;40;20031;-43
2021/07/22 06:11:14;;;;;;;15.95;12.68;;;;;;;20.69;85.60;101424.94;3558136;40;20042;-46
2021/07/22 06:13:43;;;;;;;18.10;12.73;;;;;;;20.52;87.47;101424.16;3556974;40;20081;-43
2021/07/22 06:16:13;;;;;;;16.38;11.73;;;;;;;20.56;90.19;101424.13;3555735;40;20049;-47
2021/07/22 06:18:43;;;;;;;19.05;12.68;;;;;;;20.81;90.12;101430.13;3553566;40;20308;-42
2021/07/22 06:21:16;;;;;;;16.27;12.52;;;;;;;20.65;87.33;101424.97;3554358;40;20067;-42
2021/07/22 06:23:44;;;;;;;18.27;11.77;;;;;;;21.40;85.20;101428.06;3555003;40;20089;-42
2021/07/22 06:26:12;;;;;;;13.75;11.35;;;;;;;21.61;84.58;101432.25;3554818;40;20049;-41
2021/07/22 06:28:39;;;;;;;14.80;11.43;;;;;;;21.53;79.94;101431.44;3554119;40;20062;-44
2021/07/22 06:31:06;;;;;;;16.58;12.30;;;;;;;21.68;78.98;101428.72;3540556;40;20427;-42
2021/07/22 06:33:34;;;;;;;15.50;11.27;;;;;;;21.50;80.63;101428.88;3553531;40;20037;-42
2021/07/22 06:36:01;;;;;;;13.05;11.13;;;;;;;21.81;82.68;101430.31;3553504;40;20061;-41
2021/07/22 06:38:31;;;;;;;16.10;10.82;;;;;;;21.90;78.00;101433.72;3556300;40;20450;-42
2021/07/22 06:41:00;;;;;;;14.15;10.13;;;;;;;22.14;79.98;101432.66;3554224;40;20113;-45
2021/07/22 06:43:29;;;;;;;15.07;10.48;;;;;;;22.55;74.51;101426.97;3554144;40;20054;-42
2021/07/22 06:45:56;;;;;;;15.70;11.90;;;;;;;21.61;78.47;101443.53;3556443;40;20486;-42
2021/07/22 06:48:23;;;;;;;16.77;11.82;;;;;;;21.31;80.92;101441.16;3558574;40;20155;-42
2021/07/22 06:50:50;;;;;;;17.00;11.43;;;;;;;21.31;82.34;101434.22;3554472;40;20366;-46
2021/07/22 06:53:18;;;;;;;17.40;11.35;;;;;;;21.11;81.04;101429.06;3555080;40;20467;-44
2021/07/22 06:55:45;;;;;;;15.48;11.30;;;;;;;21.26;80.43;101432.44;3557600;40;20049;-42
2021/07/22 06:58:15;;;;;;;13.18;10.52;;;;;;;22.00;79.42;101435.34;3554954;40;20037;-42
2021/07/22 07:00:43;;;;;;;14.77;11.35;;;;;;;22.09;78.55;101435.28;3554508;40;20078;-45
2021/07/22 07:03:10;;;;;;;14.60;11.65;;;;;;;21.86;78.04;101438.09;3554578;40;20253;-43
2021/07/22 07:05:38;;;;;;;14.25;10.70;;;;;;;21.74;78.44;101440.81;3554814;40;20112;-43
2021/07/22 07:08:05;;;;;;;14.90;11.13;;;;;;;22.47;74.35;101441.88;3554257;40;20112;-44
2021/07/22 07:10:33;;;;;;;15.40;10.55;;;;;;;22.42;74.76;101444.53;3554704;40;20347;-42
2021/07/22 07:13:00;;;;;;;15.25;11.27;;;;;;;22.16;75.71;101441.34;3554843;40;20301;-42
2021/07/22 07:15:27;;;;;;;13.30;10.85;;;;;;;22.21;78.09;101442.16;3554928;40;20046;-42
2021/07/22 07:17:57;;;;;;;13.05;9.95;;;;;;;22.01;76.88;101448.41;3554750;40;20406;-44
2021/07/22 07:20:27;;;;;;;13.82;10.25;;;;;;;22.00;74.38;101449.28;3554583;40;20056;-42
2021/07/22 07:22:56;;;;;;;13.45;10.38;;;;;;;22.10;74.49;101437.88;3554901;40;20073;-43
2021/07/22 07:25:23;;;;;;;15.63;10.65;;;;;;;23.07;72.66;101449.84;3554632;40;20380;-43
2021/07/22 07:27:50;;;;;;;13.82;10.20;;;;;;;22.47;72.06;101434.91;3554465;40;20438;-43
2021/07/22 07:30:24;;;;;;;12.90;10.10;;;;;;;22.66;73.21;101435.56;3554820;40;20078;-43
2021/07/22 07:32:54;;;;;;;13.25;9.73;;;;;;;23.20;70.45;101446.16;3554853;40;20451;-45
2021/07/22 07:35:26;;;;;;;13.13;9.05;;;;;;;22.97;69.38;101441.28;3554601;40;20422;-45
2021/07/22 07:37:53;;;;;;;12.90;8.82;;;;;;;23.00;71.20;101450.81;3554628;40;20061;-43
2021/07/22 07:40:21;;;;;;;12.10;9.18;;;;;;;23.54;67.05;101443.91;3555703;40;20073;-45
2021/07/22 07:42:52;;;;;;;10.68;8.55;;;;;;;23.25;68.04;101444.38;3556522;40;20057;-44
2021/07/22 07:45:19;;;;;;;12.38;9.05;;;;;;;22.52;69.44;101437.47;3554032;40;20111;-43
2021/07/22 07:47:46;;;;;;;12.30;8.68;;;;;;;22.55;72.07;101434.81;3553589;40;20520;-44
2021/07/22 07:50:13;;;;;;;13.15;8.80;;;;;;;23.47;66.95;101444.88;3554511;40;20054;-43
2021/07/22 07:52:48;;;;;;;11.02;8.60;;;;;;;23.40;66.86;101440.66;3554480;40;20425;-42
2021/07/22 07:55:26;;;;;;;12.35;9.13;;;;;;;23.09;68.86;101442.84;3552682;40;20084;-42
2021/07/22 07:57:55;;;;;;;11.30;8.70;;;;;;;23.48;68.37;101441.41;3557566;40;20438;-47
2021/07/22 08:00:27;;;;;;;13.73;8.73;;;;;;;23.37;67.51;101435.47;3556898;40;20360;-43
2021/07/22 08:02:58;;;;;;;13.15;8.80;;;;;;;23.54;66.79;101437.81;3554293;40;20075;-43
2021/07/22 08:05:33;;;;;;;15.10;8.95;;;;;;;23.29;68.09;101440.78;3541317;40;20058;-46
2021/07/22 08:08:00;;;;;;;12.23;8.40;;;;;;;23.50;68.23;101436.13;3547296;40;20150;-42
2021/07/22 08:10:28;;;;;;;13.07;8.75;;;;;;;23.09;68.55;101433.25;3554498;40;20756;-43
2021/07/22 08:13:00;;;;;;;11.85;8.63;;;;;;;23.60;65.37;101432.47;3548878;40;20425;-45
2021/07/22 08:15:37;;;;;;;12.50;8.75;;;;;;;24.21;65.53;101434.03;3555205;40;20069;-43
2021/07/22 08:18:04;;;;;;;12.27;8.55;;;;;;;24.30;66.36;101427.75;3551305;40;20444;-47
2021/07/22 08:20:31;;;;;;;11.32;8.60;;;;;;;24.54;63.07;101427.34;3553866;40;20054;-43
2021/07/22 08:23:02;;;;;;;10.63;8.20;;;;;;;24.81;63.67;101418.00;3554438;40;20235;-43
2021/07/22 08:25:29;;;;;;;14.02;8.40;;;;;;;24.79;64.39;101424.19;3554526;40;20135;-44
2021/07/22 08:27:56;;;;;;;15.20;9.50;;;;;;;24.27;63.56;101422.63;3552703;40;20046;-43
2021/07/22 08:30:24;;;;;;;12.70;9.13;;;;;;;23.85;64.40;101418.16;3554299;40;20077;-45
2021/07/22 08:32:54;;;;;;;13.68;10.10;;;;;;;23.93;65.37;101417.13;3554527;40;20057;-43
2021/07/22 08:35:24;;;;;;;11.05;9.00;;;;;;;23.81;68.64;101421.69;3554372;40;20057;-45
2021/07/22 08:37:51;;;;;;;12.68;9.23;;;;;;;24.20;67.60;101416.63;3555470;40;20210;-52
2021/07/22 08:40:18;;;;;;;12.48;8.43;;;;;;;23.84;65.15;101421.63;3555792;40;20049;-53
2021/07/22 08:42:47;;;;;;;12.85;8.48;;;;;;;23.82;64.91;101410.34;3555064;40;20045;-45
2021/07/22 08:45:17;;;;;;;12.48;9.45;;;;;;;24.10;64.56;101413.31;3554185;40;20129;-44
2021/07/22 08:47:49;;;;;;;14.52;9.50;;;;;;;22.87;66.58;101401.31;3554193;40;20073;-42
2021/07/22 08:50:16;;;;;;;11.27;8.75;;;;;;;24.49;62.85;101410.81;3554024;40;20042;-42
2021/07/22 08:52:43;;;;;;;11.50;9.07;;;;;;;24.42;63.82;101408.38;3554591;40;20054;-47
2021/07/22 08:55:11;;;;;;;14.55;9.48;;;;;;;23.92;64.98;101408.41;3554450;40;20038;-45
2021/07/22 08:57:39;;;;;;;12.35;9.57;;;;;;;24.21;62.54;101407.00;3554206;40;20065;-45
2021/07/22 09:00:07;;;;;;;13.65;9.57;;;;;;;24.64;61.31;101410.53;3554397;40;20414;-44
2021/07/22 09:02:35;;;;;;;12.38;9.60;;;;;;;25.22;58.33;101404.91;3554120;40;20176;-47
2021/07/22 09:05:05;;;;;;;12.15;9.20;;;;;;;24.77;57.49;101403.25;3554615;40;20120;-43
2021/07/22 09:07:32;;;;;;;12.27;9.15;;;;;;;25.05;58.34;101411.38;3558197;40;20101;-49
2021/07/22 09:10:05;;;;;;;12.25;9.13;;;;;;;24.70;61.80;101406.91;3560386;40;20101;-45
2021/07/22 09:12:54;;;;;;;15.13;9.60;;;;;;;24.76;57.96;101398.91;3556342;40;20050;-44
2021/07/22 09:15:27;;;;;;;11.77;8.82;;;;;;;24.31;63.10;101405.94;3554074;40;20418;-45
2021/07/22 09:18:36;;;;;;;14.68;9.13;;;;;;;24.34;62.62;101403.25;3554236;40;20034;-43
2021/07/22 09:21:23;;;;;;;14.13;9.57;;;;;;;24.41;64.60;101399.66;3554498;40;20042;-45
2021/07/22 09:24:10;;;;;;;13.48;10.10;;;;;;;24.34;61.79;101401.50;3554216;40;20046;-45
2021/07/22 09:26:40;;;;;;;11.00;9.05;;;;;;;24.33;62.42;101406.78;3557612;40;20355;-43
2021/07/22 09:29:10;;;;;;;15.77;9.73;;;;;;;24.32;62.90;101400.69;3542939;40;20050;-46
2021/07/22 09:31:38;;;;;;;10.75;9.30;;;;;;;24.81;62.38;101393.56;3545353;40;20085;-47
2021/07/22 09:34:15;;;;;;;12.43;8.90;;;;;;;24.78;63.69;101397.13;3545546;40;20093;-45
2021/07/22 09:36:42;;;;;;;13.15;8.82;;;;;;;25.16;61.45;101397.19;3545291;40;20054;-43
2021/07/22 09:39:23;;;;;;;13.13;9.55;;;;;;;25.17;61.43;101391.91;3545384;40;20038;-44
2021/07/22 09:42:04;;;;;;;11.82;8.85;;;;;;;24.68;62.12;101385.09;3545584;40;20070;-43
2021/07/22 09:44:38;;;;;;;11.60;8.85;;;;;;;24.23;62.48;101387.78;3545528;40;20145;-43
2021/07/22 09:47:10;;;;;;;11.85;9.20;;;;;;;24.31;59.04;101392.84;3541006;40;20086;-43
2021/07/22 09:49:45;;;;;;;11.73;8.70;;;;;;;23.93;59.95;101390.97;3545096;40;20474;-45
2021/07/22 09:52:18;;;;;;;13.07;9.07;;;;;;;23.76;61.84;101389.53;3545278;40;20431;-44
2021/07/22 09:54:45;;;;;;;14.23;9.48;;;;;;;23.74;63.12;101385.19;3545153;40;20076;-45
2021/07/22 09:57:18;;;;;;;14.55;9.68;;;;;;;23.70;64.20;101388.75;3545002;40;20049;-43
2021/07/22 09:59:48;;;;;;;12.70;8.65;;;;;;;24.03;63.29;101387.28;3545281;40;20053;-45
2021/07/22 10:02:23;;;;;;;13.80;9.82;;;;;;;23.71;62.22;101390.47;3545461;40;20061;-42
2021/07/22 10:05:03;;;;;;;13.80;10.07;;;;;;;24.11;64.33;101388.00;3545133;40;20057;-43
2021/07/22 10:07:36;;;;;;;13.82;9.90;;;;;;;23.59;66.18;101391.53;3545284;40;20061;-43
2021/07/22 10:10:05;;;;;;;10.50;8.98;;;;;;;24.15;63.79;101389.66;3545104;40;20847;-43
2021/07/22 10:12:35;;;;;;;12.32;9.00;;;;;;;24.19;61.22;101385.25;3544970;40;20495;-46
2021/07/22 10:15:03;;;;;;;12.57;9.13;;;;;;;25.09;58.07;101392.06;3545081;40;20053;-45
2021/07/22 10:17:34;;;;;;;14.07;9.55;;;;;;;26.03;55.96;101376.63;3544896;40;20053;-44
2021/07/22 10:20:08;;;;;;;12.35;9.15;;;;;;;25.76;53.71;101381.72;3544802;40;20045;-44
2021/07/22 10:22:35;;;;;;;12.80;9.70;;;;;;;25.62;56.26;101379.41;3544888;40;20082;-47
2021/07/22 10:25:06;;;;;;;11.15;9.07;;;;;;;26.26;52.44;101384.72;3545196;40;20046;-44
2021/07/22 10:27:33;;;;;;;11.70;9.25;;;;;;;25.19;57.72;101384.00;3552774;40;20286;-43
2021/07/22 10:30:08;;;;;;;11.43;9.90;;;;;;;24.93;59.16;101377.59;3555083;40;20055;-45
2021/07/22 10:35:07;;;;;;;12.05;8.95;;;;;;;23.67;63.56;101371.38;3563870;40;20049;-49
2021/07/22 10:37:38;;;;;;;13.25;9.10;;;;;;;23.63;65.27;101370.53;3564808;40;20449;-49
2021/07/22 10:40:14;;;;;;;13.63;9.55;;;;;;;23.35;66.35;101378.00;3564790;40;20045;-49
2021/07/22 10:42:44;;;;;;;12.85;9.60;;;;;;;23.40;66.12;101369.22;3565085;40;20123;-47
2021/07/22 10:45:18;;;;;;;14.32;9.05;;;;;;;23.49;65.16;101367.31;3564929;40;20045;-48
2021/07/22 10:47:59;;;;;;;10.63;8.07;;;;;;;23.15;65.33;101373.94;3564327;40;20103;-50
2021/07/22 10:50:42;;;;;;;10.00;8.70;;;;;;;23.27;64.89;101379.00;3564785;40;20094;-49
2021/07/22 10:53:12;;;;;;;;;;;;;;;23.22;65.28;101372.97;3565572;40;20045;-51
2021/07/22 10:55:46;;;;;;;14.70;9.38;;;;;;;23.14;64.51;101373.09;3564589;40;19940;-52
2021/07/22 10:58:34;;;;;;;12.02;8.70;;;;;;;22.94;66.17;101376.00;3564750;40;20077;-52
2021/07/22 11:01:10;;;;;;;12.50;8.80;;;;;;;22.94;64.48;101372.53;3564759;40;20105;-51
2021/07/22 11:03:44;;;;;;;10.82;9.23;;;;;;;22.94;66.10;101369.94;3564628;40;20060;-50
2021/07/22 11:06:14;;;;;;;12.18;9.60;;;;;;;22.57;68.87;101366.03;3564226;40;20040;-52
2021/07/22 11:08:42;;;;;;;12.70;9.60;;;;;;;22.64;67.67;101366.81;3564744;40;20045;-49
2021/07/22 11:11:14;;;;;;;12.55;9.63;;;;;;;22.56;69.33;101361.69;3561303;40;20044;-48
2021/07/22 11:13:50;;;;;;;13.40;9.98;;;;;;;22.61;70.38;101356.41;3564716;40;20057;-48
2021/07/22 11:16:22;;;;;;;;;;;;;;;22.66;70.00;101359.84;3562460;40;20052;-50
2021/07/22 11:18:57;;;;;;;13.10;9.30;;;;;;;22.63;70.65;101360.72;3564585;40;20227;-51
2021/07/22 11:21:30;;;;;;;15.32;9.88;;;;;;;22.87;68.56;101363.88;3564487;40;20073;-50